Time;durP1;ratioP1;P1;durP2;ratioP2;P2;SDS_P1;SDS_P2;PMS_P1;PMS_P2;Temp;Humidity;BMP_temperature;BMP_pressure;BME280_temperature;BME280_humidity;BME280_pressure;Samples;Min_cycle;Max_cycle;Signal;HPM_P1;HPM_P2
2022/05/24 00:02:04;;;;;;;7.17;6.60;;;19.60;1.00;;;;;;5031099;28;20532;-55
2022/05/24 00:04:30;;;;;;;8.17;7.50;;;19.60;1.00;;;;;;5030451;28;20187;-54
2022/05/24 00:06:56;;;;;;;7.67;7.20;;;19.60;1.00;;;;;;5031120;28;20483;-54
2022/05/24 00:09:22;;;;;;;7.07;6.63;;;19.60;1.00;;;;;;5030402;28;20441;-56
2022/05/24 00:11:47;;;;;;;7.43;6.97;;;19.70;1.00;;;;;;5030582;28;20386;-54
2022/05/24 00:14:13;;;;;;;7.70;7.20;;;19.60;1.00;;;;;;5031144;28;20163;-57
2022/05/24 00:16:38;;;;;;;7.50;7.00;;;19.60;1.00;;;;;;5030850;28;20564;-56
2022/05/24 00:19:04;;;;;;;8.03;7.53;;;19.60;1.00;;;;;;5030899;28;20629;-56
2022/05/24 00:21:30;;;;;;;7.80;7.20;;;19.60;17.70;;;;;;5030870;28;20171;-53
2022/05/24 00:23:55;;;;;;;7.53;6.97;;;19.60;44.90;;;;;;5027459;28;20286;-50
2022/05/24 00:26:31;;;;;;;7.73;7.13;;;19.60;43.80;;;;;;5035020;28;20190;-57
2022/05/24 00:28:57;;;;;;;8.90;8.20;;;19.50;80.40;;;;;;5044230;28;20965;-55
2022/05/24 00:31:23;;;;;;;9.00;7.23;;;19.50;99.90;;;;;;5030676;28;20502;-55
2022/05/24 00:33:48;;;;;;;7.97;7.40;;;19.50;99.90;;;;;;5030470;28;20418;-52
2022/05/24 00:36:15;;;;;;;8.80;8.13;;;19.50;99.90;;;;;;5033312;28;20187;-55
2022/05/24 00:38:41;;;;;;;7.67;7.20;;;19.40;99.90;;;;;;5030429;28;20719;-54
2022/05/24 00:41:16;;;;;;;7.97;7.47;;;19.40;99.90;;;;;;5029085;28;20439;-56
2022/05/24 00:43:49;;;;;;;7.40;7.00;;;19.30;99.90;;;;;;5030034;28;20270;-52
2022/05/24 00:46:42;;;;;;;7.87;7.37;;;19.30;99.90;;;;;;5023685;28;21005;-56
2022/05/24 00:49:20;;;;;;;7.77;7.17;;;19.30;99.90;;;;;;5027999;28;20429;-56
2022/05/24 00:51:56;;;;;;;8.23;7.63;;;19.30;99.90;;;;;;5028960;28;20429;-55
2022/05/24 00:54:21;;;;;;;7.43;6.93;;;19.20;99.90;;;;;;5030073;28;20424;-55
2022/05/24 00:57:13;;;;;;;7.70;7.30;;;19.20;1.00;;;;;;5031074;28;20477;-56
2022/05/24 00:59:59;;;;;;;7.57;7.07;;;19.20;1.00;;;;;;5026581;28;20297;-56
2022/05/24 01:02:25;;;;;;;7.40;6.87;;;19.30;1.00;;;;;;5029992;28;20453;-56
2022/05/24 01:04:50;;;;;;;8.20;7.50;;;19.20;1.00;;;;;;5028924;28;20865;-54
2022/05/24 01:07:16;;;;;;;7.50;7.00;;;19.20;1.00;;;;;;5029365;28;20201;-53
2022/05/24 01:09:54;;;;;;;8.30;7.50;;;19.20;1.00;;;;;;5030197;28;20836;-52
2022/05/24 01:12:25;;;;;;;7.80;7.20;;;19.20;1.00;;;;;;5029091;28;20190;-56
2022/05/24 01:14:54;;;;;;;7.90;7.20;;;19.30;1.00;;;;;;5029798;28;20472;-54
2022/05/24 01:17:19;;;;;;;8.40;7.80;;;19.20;1.00;;;;;;5029718;28;20452;-57
2022/05/24 01:19:48;;;;;;;8.30;7.80;;;19.30;1.00;;;;;;5029898;28;20426;-52
2022/05/24 01:22:25;;;;;;;8.20;7.60;;;19.30;1.00;;;;;;5028036;28;20476;-53
2022/05/24 01:24:58;;;;;;;7.80;7.30;;;19.30;1.00;;;;;;5011417;28;20497;-54
2022/05/24 01:27:23;;;;;;;8.53;7.83;;;19.30;1.00;;;;;;5030722;28;20485;-55
2022/05/24 01:29:49;;;;;;;8.07;7.57;;;19.30;1.00;;;;;;5032040;28;20442;-56
2022/05/24 01:37:43;;;;;;;8.20;7.60;;;19.20;99.90;;;;;;5029200;28;20488;-55
2022/05/24 01:40:09;;;;;;;7.50;7.00;;;19.20;99.90;;;;;;5029384;28;20409;-55
2022/05/24 01:42:35;;;;;;;8.43;7.90;;;19.20;99.90;;;;;;5027104;28;20942;-52
2022/05/24 01:45:25;;;;;;;8.53;7.93;;;19.20;99.90;;;;;;5027488;28;20445;-56
2022/05/24 01:47:56;;;;;;;7.87;7.37;;;19.20;99.90;;;;;;5028787;28;20190;-56
2022/05/24 01:50:23;;;;;;;7.30;6.80;;;19.20;1.00;;;;;;5028584;28;20428;-56
2022/05/24 01:52:54;;;;;;;7.93;7.43;;;19.10;1.00;;;;;;5033091;28;20473;-57
2022/05/24 01:55:28;;;;;;;7.73;7.20;;;19.10;1.00;;;;;;5033455;28;20935;-52
2022/05/24 01:57:58;;;;;;;7.30;6.80;;;19.10;1.00;;;;;;5028650;28;20489;-55
2022/05/24 02:00:23;;;;;;;8.53;7.93;;;19.20;1.00;;;;;;5036210;28;20441;-55
2022/05/24 02:02:49;;;;;;;7.30;6.67;;;19.20;1.00;;;;;;5031122;28;20441;-56
2022/05/24 02:05:30;;;;;;;8.07;7.40;;;19.10;99.90;;;;;;5027808;28;20264;-56
2022/05/24 02:07:56;;;;;;;9.10;8.40;;;19.10;99.90;;;;;;5029076;28;20190;-57
2022/05/24 02:10:22;;;;;;;8.50;7.80;;;19.00;99.90;;;;;;5028877;28;20432;-55
2022/05/24 02:12:53;;;;;;;8.37;7.77;;;19.10;1.00;;;;;;5028910;28;20524;-55
2022/05/24 02:15:22;;;;;;;8.00;7.50;;;19.10;1.00;;;;;;5028714;28;20190;-55
2022/05/24 02:18:01;;;;;;;10.53;7.80;;;19.10;1.00;;;;;;5026393;28;20496;-56
2022/05/24 02:20:30;;;;;;;7.87;7.40;;;19.10;1.00;;;;;;5022706;28;20436;-55
2022/05/24 02:22:56;;;;;;;8.53;7.33;;;19.10;1.00;;;;;;5027348;28;20452;-54
2022/05/24 02:25:45;;;;;;;8.03;7.37;;;19.10;51.80;;;;;;5028958;28;20421;-54
2022/05/24 02:28:12;;;;;;;7.73;7.10;;;19.00;99.90;;;;;;5034710;28;20194;-54
2022/05/24 02:30:41;;;;;;;8.07;7.47;;;19.00;99.90;;;;;;5039660;28;20756;-56
2022/05/24 02:33:07;;;;;;;8.77;7.97;;;19.00;1.00;;;;;;5029554;28;20429;-53
2022/05/24 02:35:32;;;;;;;7.50;7.00;;;19.00;1.00;;;;;;5030236;28;20436;-55
2022/05/24 02:37:58;;;;;;;8.10;7.60;;;19.10;1.00;;;;;;5030382;28;20210;-54
2022/05/24 02:43:08;;;;;;;8.07;7.50;;;19.10;1.00;;;;;;5030165;28;20189;-54
2022/05/24 02:45:33;;;;;;;8.17;7.10;;;19.10;4.40;;;;;;5029422;28;20434;-53
2022/05/24 02:47:59;;;;;;;8.20;7.60;;;19.10;99.90;;;;;;5028295;28;20194;-53
2022/05/24 02:50:25;;;;;;;6.73;6.30;;;19.10;99.90;;;;;;5029665;28;20592;-53
2022/05/24 02:52:50;;;;;;;8.00;7.30;;;19.10;99.90;;;;;;5030366;28;20229;-56
2022/05/24 02:55:16;;;;;;;7.90;7.13;;;19.10;99.90;;;;;;5030197;28;20191;-53
2022/05/24 02:57:42;;;;;;;7.70;7.10;;;19.10;99.90;;;;;;5029140;28;20238;-51
2022/05/24 03:00:12;;;;;;;9.07;8.27;;;19.10;1.00;;;;;;5030228;28;20436;-54
2022/05/24 03:02:39;;;;;;;8.43;7.73;;;19.20;1.00;;;;;;5026996;28;20191;-57
2022/05/24 03:05:07;;;;;;;8.53;7.73;;;19.10;46.70;;;;;;5032449;28;20508;-55
2022/05/24 03:10:17;;;;;;;7.87;7.20;;;19.10;99.90;;;;;;5033558;28;20513;-52
2022/05/24 03:15:27;;;;;;;7.60;7.00;;;19.10;99.90;;;;;;5033600;28;20241;-57
2022/05/24 03:17:53;;;;;;;8.13;7.63;;;19.10;99.90;;;;;;5032323;28;20476;-54
2022/05/24 03:20:20;;;;;;;7.33;6.83;;;19.10;99.90;;;;;;5033328;28;20179;-54
2022/05/24 03:22:46;;;;;;;7.57;7.03;;;19.10;99.90;;;;;;5033154;28;20429;-56
2022/05/24 03:25:12;;;;;;;7.90;7.30;;;19.10;1.00;;;;;;5033029;28;20480;-54
2022/05/24 03:27:37;;;;;;;9.33;7.27;;;19.10;1.00;;;;;;5031499;28;20191;-52
2022/05/24 03:30:04;;;;;;;7.60;7.10;;;19.10;1.00;;;;;;5032816;28;20477;-50
2022/05/24 03:32:29;;;;;;;7.70;7.13;;;19.10;1.00;;;;;;5031305;28;20187;-55
2022/05/24 03:34:55;;;;;;;7.50;6.90;;;19.20;1.00;;;;;;5031022;28;20456;-53
2022/05/24 03:37:21;;;;;;;7.63;7.03;;;19.20;1.00;;;;;;5029658;28;20720;-57
2022/05/24 03:39:46;;;;;;;7.73;7.13;;;19.20;1.00;;;;;;5031986;28;20194;-53
2022/05/24 03:42:13;;;;;;;7.53;7.03;;;19.20;1.00;;;;;;5029694;28;20479;-52
2022/05/24 03:44:39;;;;;;;7.07;6.60;;;19.10;99.90;;;;;;5031547;28;20501;-54
2022/05/24 03:47:04;;;;;;;7.57;6.87;;;19.10;99.90;;;;;;5031082;28;20449;-55
2022/05/24 03:49:30;;;;;;;8.60;6.60;;;19.10;1.00;;;;;;5031165;28;20191;-54
2022/05/24 03:51:55;;;;;;;7.70;7.10;;;19.10;1.00;;;;;;5030510;28;20202;-56
2022/05/24 03:54:21;;;;;;;7.60;6.70;;;19.00;99.90;;;;;;5030435;28;20253;-56
2022/05/24 03:59:31;;;;;;;7.00;6.50;;;19.10;99.90;;;;;;5028962;28;20241;-54
2022/05/24 04:01:57;;;;;;;8.70;7.27;;;19.10;1.00;;;;;;5030963;28;20508;-53
2022/05/24 04:04:22;;;;;;;6.70;6.10;;;19.20;99.90;;;;;;5030763;28;20448;-56
2022/05/24 04:06:48;;;;;;;7.40;6.90;;;19.20;99.90;;;;;;5031095;28;20257;-55
2022/05/24 04:09:14;;;;;;;8.20;7.40;;;19.20;85.10;;;;;;5028051;28;20226;-56
2022/05/24 04:11:39;;;;;;;7.43;6.73;;;19.20;99.90;;;;;;5021112;28;20195;-53
2022/05/24 04:14:05;;;;;;;6.50;6.00;;;19.00;99.90;;;;;;5022388;28;20187;-55
2022/05/24 04:16:31;;;;;;;6.87;6.37;;;19.00;99.90;;;;;;5021418;28;20221;-54
2022/05/24 04:18:57;;;;;;;6.93;6.27;;;18.90;99.90;;;;;;5021665;28;20221;-54
2022/05/24 04:21:23;;;;;;;7.40;6.80;;;18.90;1.00;;;;;;5018955;28;20544;-55
2022/05/24 04:23:48;;;;;;;7.23;6.73;;;18.90;1.00;;;;;;5021085;28;20932;-55
2022/05/24 04:26:14;;;;;;;6.70;6.20;;;18.90;1.00;;;;;;5022336;28;20433;-53
2022/05/24 04:28:39;;;;;;;7.00;6.40;;;19.00;1.00;;;;;;5021756;28;20515;-55
2022/05/24 04:31:05;;;;;;;12.63;6.63;;;18.90;1.00;;;;;;5021655;28;20194;-53
2022/05/24 04:33:31;;;;;;;6.90;6.40;;;19.10;1.00;;;;;;5021279;28;20691;-56
2022/05/24 04:35:56;;;;;;;7.30;6.43;;;19.10;1.00;;;;;;5021798;28;20203;-56
2022/05/24 04:38:22;;;;;;;6.80;6.20;;;19.30;99.90;;;;;;5021270;28;20207;-53
2022/05/24 04:43:33;;;;;;;6.60;6.10;;;19.40;1.00;;;;;;5030124;28;20990;-55
2022/05/24 04:45:58;;;;;;;6.60;6.10;;;19.50;99.90;;;;;;5026972;28;20434;-56
2022/05/24 04:48:25;;;;;;;6.83;6.23;;;19.60;99.90;;;;;;5028334;28;20294;-55
2022/05/24 04:50:52;;;;;;;6.87;6.37;;;19.70;99.90;;;;;;5030400;28;20195;-53
2022/05/24 04:53:18;;;;;;;7.20;6.70;;;19.70;99.90;;;;;;5029435;28;20536;-53
2022/05/24 04:55:44;;;;;;;5.73;5.33;;;19.90;99.90;;;;;;5030050;28;20956;-53
2022/05/24 04:58:11;;;;;;;5.43;5.03;;;20.00;1.00;;;;;;5029863;28;20580;-53
2022/05/24 05:00:37;;;;;;;5.13;4.73;;;20.20;99.90;;;;;;5032045;28;20179;-53
2022/05/24 05:03:11;;;;;;;4.70;4.30;;;20.20;99.90;;;;;;5034908;28;20414;-53
2022/05/24 05:05:37;;;;;;;4.67;4.27;;;20.30;1.00;;;;;;5029704;28;20425;-55
2022/05/24 05:08:05;;;;;;;4.40;4.10;;;20.20;1.00;;;;;;5029804;28;20950;-51
2022/05/24 05:10:33;;;;;;;4.20;3.90;;;20.30;1.00;;;;;;5027195;28;20967;-49
2022/05/24 05:12:58;;;;;;;4.53;4.10;;;20.30;1.00;;;;;;5029722;28;20444;-54
2022/05/24 05:15:24;;;;;;;4.50;4.10;;;20.20;1.00;;;;;;5029066;28;20418;-53
2022/05/24 05:17:51;;;;;;;3.93;3.70;;;20.10;1.00;;;;;;5034527;28;20210;-53
2022/05/24 05:20:16;;;;;;;4.40;4.10;;;20.10;1.00;;;;;;5029293;28;20171;-53
2022/05/24 05:22:42;;;;;;;3.80;3.50;;;20.20;1.00;;;;;;5029694;28;20436;-53
2022/05/24 05:25:09;;;;;;;4.30;4.00;;;20.20;1.00;;;;;;5048342;28;20194;-54
2022/05/24 05:27:34;;;;;;;4.10;3.80;;;20.30;99.90;;;;;;5049201;28;20651;-53
2022/05/24 05:32:45;;;;;;;4.63;4.23;;;20.40;1.00;;;;;;5031269;28;20260;-56
2022/05/24 05:35:11;;;;;;;4.27;3.97;;;20.50;1.00;;;;;;5029322;28;20397;-54
2022/05/24 05:37:37;;;;;;;4.80;3.80;;;20.50;1.00;;;;;;5034495;28;20870;-53
2022/05/24 05:40:04;;;;;;;4.30;4.00;;;20.60;99.90;;;;;;5046326;28;20418;-55
2022/05/24 05:42:31;;;;;;;4.33;3.93;;;20.70;44.50;;;;;;5037627;28;20178;-55
2022/05/24 05:44:56;;;;;;;4.37;3.83;;;20.70;27.70;;;;;;5038317;28;20424;-56
2022/05/24 05:47:22;;;;;;;3.77;3.53;;;20.80;99.90;;;;;;5029435;28;20414;-52
2022/05/24 05:49:47;;;;;;;4.00;3.70;;;20.90;1.00;;;;;;5028458;28;20191;-52
2022/05/24 05:52:13;;;;;;;3.63;3.33;;;21.10;99.90;;;;;;5028644;28;20186;-54
2022/05/24 05:54:39;;;;;;;4.23;4.03;;;21.20;99.90;;;;;;5028704;28;20266;-52
2022/05/24 05:57:08;;;;;;;8.20;4.20;;;21.40;99.90;;;;;;5028641;28;20469;-55
2022/05/24 05:59:34;;;;;;;4.10;3.90;;;21.40;99.90;;;;;;5028920;28;20202;-53
2022/05/24 06:02:01;;;;;;;3.87;3.67;;;21.40;1.00;;;;;;5030163;28;20433;-51
2022/05/24 06:04:26;;;;;;;4.20;3.80;;;21.40;1.00;;;;;;5031097;28;20528;-54
2022/05/24 06:06:53;;;;;;;4.00;3.70;;;21.30;12.30;;;;;;5028223;28;20505;-54
2022/05/24 06:09:19;;;;;;;4.50;4.20;;;21.10;99.90;;;;;;5028442;28;20223;-54
2022/05/24 06:11:45;;;;;;;4.37;4.17;;;21.10;99.90;;;;;;5029045;28;20426;-52
2022/05/24 06:14:10;;;;;;;4.80;4.50;;;21.10;1.00;;;;;;5029162;28;20432;-55
2022/05/24 06:16:37;;;;;;;4.23;4.03;;;21.00;1.00;;;;;;5028889;28;20680;-55
2022/05/24 06:19:04;;;;;;;4.03;3.73;;;20.90;99.90;;;;;;5028284;28;20253;-56
2022/05/24 06:21:33;;;;;;;4.67;4.20;;;20.90;99.90;;;;;;5022898;28;20469;-52
2022/05/24 06:24:03;;;;;;;4.20;4.00;;;21.10;99.90;;;;;;5023774;28;20507;-54
2022/05/24 06:26:29;;;;;;;5.07;4.03;;;21.20;99.90;;;;;;5039754;28;20843;-50
2022/05/24 06:28:56;;;;;;;3.93;3.73;;;21.30;99.90;;;;;;5028850;28;20980;-51
2022/05/24 06:31:21;;;;;;;5.33;5.00;;;21.40;46.60;;;;;;5030405;28;21361;-56
2022/05/24 06:33:47;;;;;;;4.43;4.13;;;21.70;99.90;;;;;;5028937;28;20530;-51
2022/05/24 06:36:12;;;;;;;4.60;4.40;;;21.80;99.90;;;;;;5028647;28;20215;-55
2022/05/24 06:38:38;;;;;;;4.77;4.37;;;21.80;99.90;;;;;;5028931;28;20213;-55
2022/05/24 06:41:04;;;;;;;4.50;4.10;;;21.90;99.90;;;;;;5031768;28;20264;-50
2022/05/24 06:43:30;;;;;;;4.53;4.23;;;22.00;99.90;;;;;;5032164;28;20179;-55
2022/05/24 06:45:56;;;;;;;5.23;4.90;;;22.10;1.00;;;;;;5032604;28;20439;-52
2022/05/24 06:48:21;;;;;;;4.63;4.43;;;22.20;1.00;;;;;;5043451;28;20492;-53
2022/05/24 06:50:47;;;;;;;4.33;4.07;;;22.20;1.00;;;;;;5032194;28;20769;-52
2022/05/24 06:53:12;;;;;;;4.57;4.30;;;22.30;1.00;;;;;;5031827;28;20559;-52
2022/05/24 06:55:38;;;;;;;4.70;4.30;;;22.20;1.00;;;;;;5032152;28;20272;-56
2022/05/24 06:58:05;;;;;;;4.73;4.43;;;22.20;1.00;;;;;;5031669;28;20206;-55
2022/05/24 07:03:15;;;;;;;4.50;4.20;;;22.30;99.90;;;;;;5031688;28;20944;-56
2022/05/24 07:05:43;;;;;;;4.63;4.00;;;22.40;1.00;;;;;;5031776;28;20440;-54
2022/05/24 07:08:10;;;;;;;4.40;4.10;;;22.40;1.00;;;;;;5031560;28;20487;-54
2022/05/24 07:10:37;;;;;;;4.67;4.37;;;22.60;1.00;;;;;;5045819;28;20436;-55
2022/05/24 07:13:08;;;;;;;4.87;4.60;;;22.60;1.00;;;;;;5050714;28;20434;-54
2022/05/24 07:15:33;;;;;;;4.87;4.57;;;22.30;99.90;;;;;;5031494;28;20437;-53
2022/05/24 07:18:00;;;;;;;4.97;4.57;;;22.30;99.90;;;;;;5032006;28;20886;-53
2022/05/24 07:20:26;;;;;;;5.23;4.83;;;22.20;1.00;;;;;;5032367;28;20171;-55
2022/05/24 07:22:54;;;;;;;5.40;5.00;;;22.30;1.00;;;;;;5031882;28;20512;-51
2022/05/24 07:25:21;;;;;;;5.50;5.03;;;22.40;1.00;;;;;;5032055;28;20456;-50
2022/05/24 07:27:46;;;;;;;5.27;4.93;;;22.60;99.90;;;;;;5049312;28;20435;-53
2022/05/24 07:30:12;;;;;;;5.00;4.70;;;22.50;99.90;;;;;;5048031;28;20781;-54
2022/05/24 07:32:38;;;;;;;5.17;4.87;;;22.60;99.90;;;;;;5030903;28;20222;-55
2022/05/24 07:35:05;;;;;;;5.53;5.23;;;22.80;99.90;;;;;;5032301;28;20409;-56
2022/05/24 07:37:31;;;;;;;4.50;4.10;;;23.00;99.90;;;;;;5043883;28;20244;-51
2022/05/24 07:48:10;;;;;;;5.63;5.33;;;23.60;8.80;;;;;;5030853;28;20432;-54
2022/05/24 07:50:36;;;;;;;5.50;5.00;;;23.90;1.00;;;;;;5035874;28;20472;-54
2022/05/24 07:53:02;;;;;;;4.80;4.50;;;24.10;1.00;;;;;;5034848;28;20448;-54
2022/05/24 07:55:28;;;;;;;5.07;4.60;;;24.30;1.00;;;;;;5031400;28;20431;-53
2022/05/24 07:57:53;;;;;;;5.00;4.63;;;24.60;1.00;;;;;;5031136;28;20613;-49
2022/05/24 08:00:19;;;;;;;5.47;5.17;;;24.70;1.00;;;;;;5031406;28;20238;-54
2022/05/24 08:02:48;;;;;;;5.83;5.10;;;24.70;1.00;;;;;;5036259;28;20186;-55
2022/05/24 08:05:13;;;;;;;5.60;5.20;;;24.60;1.00;;;;;;5023010;28;20454;-53
2022/05/24 08:07:39;;;;;;;5.40;5.10;;;24.70;1.00;;;;;;5036197;28;20459;-54
2022/05/24 08:10:05;;;;;;;5.53;5.13;;;24.60;1.00;;;;;;5031135;28;20192;-55
2022/05/24 08:12:32;;;;;;;5.40;5.10;;;24.50;1.00;;;;;;5029604;28;20200;-51
2022/05/24 08:14:58;;;;;;;5.13;4.83;;;24.30;1.00;;;;;;5029279;28;20495;-52
2022/05/24 08:17:24;;;;;;;5.37;4.97;;;24.20;1.00;;;;;;5030968;28;20469;-54
2022/05/24 08:19:50;;;;;;;6.30;5.80;;;24.30;1.00;;;;;;5030020;28;20413;-55
2022/05/24 08:22:15;;;;;;;6.10;5.70;;;24.20;1.00;;;;;;5029991;28;20406;-55
2022/05/24 08:24:41;;;;;;;5.77;5.37;;;24.00;1.00;;;;;;5034596;28;20185;-53
2022/05/24 08:27:09;;;;;;;5.00;4.77;;;23.90;1.00;;;;;;5011025;28;20632;-54
2022/05/24 08:29:35;;;;;;;5.10;4.70;;;23.80;1.00;;;;;;5011165;28;20676;-52
2022/05/24 08:32:02;;;;;;;5.00;4.70;;;23.80;1.00;;;;;;5028736;28;20433;-52
2022/05/24 08:34:27;;;;;;;5.67;5.27;;;23.90;1.00;;;;;;5030968;28;20171;-50
2022/05/24 08:36:53;;;;;;;5.67;5.33;;;23.80;1.00;;;;;;5041326;28;20999;-54
2022/05/24 08:39:18;;;;;;;5.57;5.17;;;23.80;1.00;;;;;;5040171;28;20195;-50
2022/05/24 08:42:17;;;;;;;5.33;4.93;;;23.70;1.00;;;;;;5028425;28;20244;-53
2022/05/24 08:50:29;;;;;;;5.50;5.20;;;23.40;1.00;;;;;;5030207;28;20459;-53
2022/05/24 08:53:02;;;;;;;5.47;5.07;;;23.20;18.10;;;;;;5030212;28;20420;-52
2022/05/24 08:55:28;;;;;;;5.33;4.83;;;23.10;62.60;;;;;;5028342;28;20425;-51
2022/05/24 08:57:57;;;;;;;5.50;5.20;;;23.10;99.90;;;;;;5029619;28;20543;-53
2022/05/24 09:00:39;;;;;;;5.97;5.30;;;23.20;99.90;;;;;;5029489;28;20194;-55
2022/05/24 09:03:06;;;;;;;5.73;5.43;;;23.30;16.70;;;;;;5028074;28;20416;-53
2022/05/24 09:05:48;;;;;;;7.97;4.80;;;23.40;1.00;;;;;;5028538;28;20425;-53
2022/05/24 09:08:37;;;;;;;5.13;4.83;;;23.80;1.00;;;;;;5029694;28;20476;-55
2022/05/24 09:11:11;;;;;;;5.97;5.67;;;24.30;1.00;;;;;;5029786;28;20430;-56
2022/05/24 09:14:01;;;;;;;8.53;5.80;;;24.90;1.00;;;;;;5028652;28;20523;-54
2022/05/24 09:16:41;;;;;;;5.67;5.37;;;25.60;1.00;;;;;;5029873;28;20425;-54
2022/05/24 09:19:22;;;;;;;5.87;5.47;;;26.10;1.00;;;;;;5021620;28;20502;-49
2022/05/24 09:21:51;;;;;;;5.00;4.80;;;26.50;99.90;;;;;;5028010;28;20427;-53
2022/05/24 09:24:26;;;;;;;6.07;5.77;;;26.80;99.90;;;;;;5028567;28;20424;-54
2022/05/24 09:27:09;;;;;;;5.30;5.00;;;26.90;99.90;;;;;;5028718;28;20963;-57
2022/05/24 09:29:52;;;;;;;4.80;4.60;;;26.80;99.90;;;;;;5028323;28;20780;-53
2022/05/24 09:32:18;;;;;;;5.43;5.13;;;27.10;99.90;;;;;;5009195;28;20417;-55
2022/05/24 09:34:43;;;;;;;6.43;5.63;;;27.40;99.90;;;;;;5028515;28;20476;-54
2022/05/24 09:37:29;;;;;;;5.97;5.43;;;27.70;99.90;;;;;;5027653;28;20207;-54
2022/05/24 09:40:22;;;;;;;5.87;5.37;;;27.60;99.90;;;;;;5025908;28;20203;-55
2022/05/24 09:42:48;;;;;;;7.20;5.67;;;28.10;99.90;;;;;;5027513;28;20516;-55
2022/05/24 09:45:18;;;;;;;5.57;5.07;;;27.90;99.90;;;;;;5030326;28;20453;-53
2022/05/24 09:47:43;;;;;;;6.20;5.90;;;27.40;99.90;;;;;;5035362;28;20445;-57
2022/05/24 09:50:17;;;;;;;5.60;5.20;;;26.80;99.90;;;;;;5035574;28;20545;-53
2022/05/24 09:53:06;;;;;;;6.03;5.63;;;26.40;99.90;;;;;;5021805;28;20172;-52
2022/05/24 09:55:59;;;;;;;5.70;5.30;;;25.80;99.90;;;;;;5029334;28;20460;-53
2022/05/24 09:58:30;;;;;;;5.03;4.73;;;25.50;99.90;;;;;;5026997;28;20472;-55
2022/05/24 10:01:03;;;;;;;5.50;5.13;;;25.20;99.90;;;;;;5024317;28;20505;-55
2022/05/24 10:03:40;;;;;;;5.43;5.03;;;25.10;99.90;;;;;;5030197;28;20922;-53
2022/05/24 10:06:24;;;;;;;5.37;4.97;;;25.00;99.90;;;;;;5037610;28;20435;-55
2022/05/24 10:08:54;;;;;;;5.60;5.30;;;25.20;99.90;;;;;;5027930;28;20452;-56
2022/05/24 10:11:49;;;;;;;5.60;5.03;;;25.70;99.90;;;;;;5027421;28;20443;-53
2022/05/24 10:14:17;;;;;;;6.00;5.60;;;26.30;99.90;;;;;;5018422;28;20457;-54
2022/05/24 10:17:10;;;;;;;5.53;5.13;;;26.60;99.90;;;;;;5031902;28;20584;-52
2022/05/24 10:20:01;;;;;;;5.37;5.07;;;26.90;99.90;;;;;;5027731;28;20431;-55
2022/05/24 10:22:55;;;;;;;5.53;5.20;;;27.10;99.90;;;;;;5030969;28;21302;-53
2022/05/24 10:25:40;;;;;;;5.23;4.83;;;27.30;99.90;;;;;;5031230;28;20465;-51
2022/05/24 10:28:33;;;;;;;5.87;5.47;;;27.50;99.90;;;;;;5029661;28;20445;-52
2022/05/24 10:31:34;;;;;;;5.10;4.80;;;27.70;99.90;;;;;;5028090;28;20496;-55
2022/05/24 10:41:05;;;;;;;5.80;5.50;;;28.90;99.90;;;;;;5034230;28;20453;-53
2022/05/24 10:43:56;;;;;;;6.23;5.93;;;29.20;99.90;;;;;;5030344;28;20440;-52
2022/05/24 10:46:45;;;;;;;5.67;5.37;;;29.00;99.90;;;;;;5022104;28;20438;-52
2022/05/24 10:49:17;;;;;;;6.10;5.80;;;29.10;99.90;;;;;;5029483;28;20801;-52
2022/05/24 10:51:54;;;;;;;6.20;5.70;;;29.80;99.90;;;;;;5030661;28;20435;-53
2022/05/24 10:54:36;;;;;;;5.93;5.53;;;30.20;99.90;;;;;;5030217;28;20862;-54
2022/05/24 10:57:07;;;;;;;5.83;5.53;;;30.80;99.90;;;;;;5030277;28;20480;-54
2022/05/24 10:59:40;;;;;;;5.87;5.47;;;30.40;99.90;;;;;;5030691;28;20904;-52
2022/05/24 11:02:32;;;;;;;5.73;5.43;;;30.10;99.90;;;;;;5023601;28;20440;-52
2022/05/24 11:05:17;;;;;;;5.70;5.40;;;30.00;99.90;;;;;;5019941;28;20419;-51
2022/05/24 11:07:43;;;;;;;6.80;6.20;;;29.60;99.90;;;;;;5029007;28;20453;-52
2022/05/24 11:10:31;;;;;;;6.63;6.23;;;28.80;99.90;;;;;;5031357;28;20421;-53
2022/05/24 11:13:20;;;;;;;6.07;5.57;;;27.90;99.90;;;;;;5029710;28;20772;-50
2022/05/24 11:15:56;;;;;;;5.57;5.27;;;27.60;99.90;;;;;;5030831;28;20444;-51
2022/05/24 11:18:24;;;;;;;5.80;5.40;;;27.60;99.90;;;;;;5030691;28;20477;-53
2022/05/24 11:20:55;;;;;;;5.37;5.07;;;27.60;99.90;;;;;;5027919;28;20449;-54
2022/05/24 11:23:26;;;;;;;5.60;5.30;;;28.30;99.90;;;;;;5030496;28;21269;-53
2022/05/24 11:26:02;;;;;;;6.03;5.53;;;29.20;99.90;;;;;;5025433;28;20453;-54
2022/05/24 11:28:32;;;;;;;5.77;5.33;;;29.40;99.90;;;;;;5027169;28;20537;-53
2022/05/24 11:31:27;;;;;;;6.30;5.93;;;29.00;99.90;;;;;;5029753;28;20503;-56
2022/05/24 11:33:57;;;;;;;4.97;4.67;;;28.40;99.90;;;;;;5029454;28;20998;-56
2022/05/24 11:36:25;;;;;;;5.60;5.23;;;27.60;99.90;;;;;;5026016;28;20409;-52
2022/05/24 11:38:51;;;;;;;5.00;4.70;;;27.10;99.90;;;;;;5023770;28;21128;-53
2022/05/24 11:41:29;;;;;;;5.23;4.93;;;27.00;99.90;;;;;;5030599;28;20467;-50
2022/05/24 11:43:54;;;;;;;5.40;5.10;;;26.40;99.90;;;;;;5030212;28;20644;-53
2022/05/24 11:46:37;;;;;;;5.73;5.23;;;26.40;99.90;;;;;;5033170;28;20483;-55
2022/05/24 11:49:34;;;;;;;5.20;4.90;;;26.20;99.90;;;;;;5031782;28;20243;-50
2022/05/24 11:52:21;;;;;;;5.07;4.77;;;25.70;99.90;;;;;;5006608;28;20431;-55
2022/05/24 11:54:49;;;;;;;5.30;5.00;;;25.40;99.90;;;;;;5024159;28;20489;-55
2022/05/24 11:57:15;;;;;;;5.30;4.90;;;25.50;99.90;;;;;;5018129;28;20486;-55
2022/05/24 11:59:40;;;;;;;4.87;4.67;;;25.70;99.90;;;;;;5028958;28;20444;-54
2022/05/24 12:02:32;;;;;;;5.47;5.00;;;25.60;99.90;;;;;;5028484;28;20181;-50
2022/05/24 12:07:55;;;;;;;5.20;4.80;;;25.30;99.90;;;;;;5031101;28;20446;-56
2022/05/24 12:10:20;;;;;;;4.67;4.47;;;25.20;99.90;;;;;;5027493;28;20439;-53
2022/05/24 12:12:51;;;;;;;5.00;4.70;;;24.90;99.90;;;;;;5029762;28;20940;-53
2022/05/24 12:15:24;;;;;;;5.27;4.97;;;24.70;99.90;;;;;;5020553;28;20551;-53
2022/05/24 12:17:52;;;;;;;5.10;4.80;;;24.70;99.90;;;;;;5012413;28;20578;-53
2022/05/24 12:20:35;;;;;;;5.50;5.20;;;24.70;99.90;;;;;;5010817;28;20956;-53
2022/05/24 12:23:06;;;;;;;4.67;4.47;;;24.50;99.90;;;;;;5010219;28;20424;-56
2022/05/24 12:25:58;;;;;;;5.20;4.83;;;24.40;99.90;;;;;;5030106;28;20537;-55
2022/05/24 12:28:33;;;;;;;5.67;5.37;;;24.30;99.90;;;;;;5025682;28;20445;-54
2022/05/24 12:30:59;;;;;;;5.20;4.90;;;24.30;99.90;;;;;;5028917;28;20491;-53
2022/05/24 12:33:25;;;;;;;4.50;4.30;;;24.30;99.90;;;;;;5028377;28;20445;-54
2022/05/24 12:36:01;;;;;;;4.73;4.30;;;24.30;99.90;;;;;;5029978;28;20488;-53
2022/05/24 12:38:28;;;;;;;5.20;4.90;;;24.30;99.90;;;;;;5027493;28;20653;-56
2022/05/24 12:41:25;;;;;;;4.40;4.20;;;24.40;99.90;;;;;;5028736;28;20470;-52
2022/05/24 12:44:02;;;;;;;4.23;4.03;;;24.40;99.90;;;;;;5030293;28;20425;-54
2022/05/24 12:46:34;;;;;;;4.17;3.87;;;24.30;99.90;;;;;;5016405;28;20434;-52
2022/05/24 12:49:17;;;;;;;4.50;4.10;;;24.10;99.90;;;;;;5027781;28;20430;-53
2022/05/24 12:51:43;;;;;;;5.13;4.73;;;24.00;99.90;;;;;;5039169;28;21146;-54
2022/05/24 12:54:26;;;;;;;5.17;4.87;;;23.90;99.90;;;;;;5028747;28;20442;-53
2022/05/24 12:56:54;;;;;;;4.63;4.33;;;23.80;99.90;;;;;;5028518;28;20488;-54
2022/05/24 12:59:34;;;;;;;4.10;3.90;;;23.80;99.90;;;;;;5028077;28;20445;-53
2022/05/24 13:02:13;;;;;;;4.80;4.50;;;23.70;99.90;;;;;;5030551;28;20481;-53
2022/05/24 13:04:39;;;;;;;4.90;4.60;;;23.70;99.90;;;;;;5027093;28;20449;-54
2022/05/24 13:07:51;;;;;;;4.33;4.13;;;23.60;99.90;;;;;;5027356;28;21229;-53
2022/05/24 13:10:26;;;;;;;4.37;4.17;;;23.60;99.90;;;;;;5018250;28;20636;-54
2022/05/24 13:13:06;;;;;;;4.57;4.27;;;23.60;99.90;;;;;;5029020;28;20440;-51
2022/05/24 13:15:56;;;;;;;4.67;4.30;;;23.60;99.90;;;;;;5027003;28;20499;-55
2022/05/24 13:18:31;;;;;;;4.80;4.40;;;23.50;99.90;;;;;;5036612;28;20530;-54
2022/05/24 13:21:03;;;;;;;4.53;4.33;;;23.30;99.90;;;;;;5029912;28;21025;-51
2022/05/24 13:23:32;;;;;;;4.30;4.10;;;23.30;99.90;;;;;;5028302;28;20526;-54
2022/05/24 13:26:04;;;;;;;4.30;4.03;;;23.40;99.90;;;;;;5027806;28;20456;-50
2022/05/24 13:28:40;;;;;;;4.00;3.80;;;23.40;99.90;;;;;;5028852;28;20456;-54
2022/05/24 13:33:53;;;;;;;5.40;4.27;;;23.50;99.90;;;;;;5017461;28;20468;-54
2022/05/24 13:36:29;;;;;;;4.20;3.87;;;23.60;99.90;;;;;;5027730;28;20449;-53
2022/05/24 13:39:04;;;;;;;4.17;3.90;;;23.70;99.90;;;;;;5029374;28;20542;-55
2022/05/24 13:41:37;;;;;;;4.20;3.90;;;23.70;99.90;;;;;;5028271;28;20555;-53
2022/05/24 13:44:25;;;;;;;5.30;5.00;;;23.80;99.90;;;;;;5017989;28;20776;-56
2022/05/24 13:46:56;;;;;;;5.23;4.17;;;23.80;99.90;;;;;;5029411;28;20445;-53
2022/05/24 13:49:28;;;;;;;4.03;3.73;;;24.00;99.90;;;;;;5029225;28;20923;-55
2022/05/24 13:51:53;;;;;;;4.73;4.43;;;24.00;99.90;;;;;;5028919;28;20445;-53
2022/05/24 13:54:33;;;;;;;3.70;3.50;;;24.00;99.90;;;;;;5029590;28;20433;-55
2022/05/24 13:57:00;;;;;;;4.00;3.80;;;23.90;99.90;;;;;;5029005;28;20339;-55
2022/05/24 13:59:26;;;;;;;4.33;4.07;;;23.80;99.90;;;;;;5029555;28;20529;-54
2022/05/24 14:02:14;;;;;;;4.60;4.30;;;23.60;99.90;;;;;;5029435;28;20937;-53